Impacts METAR Board
IDs:

KMSP - Minneapolis-St Paul, MN, US

Updated at: 2100 UTC 19 Jun 2018
Potential Impact None Slight Moderate High
Time 19/09Z 19/10Z 19/11Z 19/12Z 19/13Z 19/14Z 19/15Z 19/16Z 19/17Z 19/18Z 19/19Z 19/20Z 19/21Z
Temp68 67 63 63 63 63 62 62 62 63 65 66 66
Dewpt65 65 61 62 63 61 60 61 62 62 62 62 62
Altim29.97 29.98 30.00 30.01 30.01 30.01 30.02 30.03 30.01 30.00 29.98 29.97 29.97
VIS10 5 10 10 3 7 6 9 2 8 10 10 10
CIG30 14 21 14 7 8 9 9 8 10 12 12 13
CoverOVCOVCOVCOVCOVCOVCOVCOVCOVCOVCOVCOVCOVC
FltCatMVFRMVFRMVFRMVFRIFRIFRIFRIFRIFRMVFRMVFRMVFRMVFR
WX---RA BR-DZ-DZ-RA BR-RA-RA BR-RA+RA BR-RA------
WDir40601008080901101008090909080
WSpd8 10 11 12 12 15 14 12 11 12 13 11 12
WGst-- 21 -- -- -- -- -- -- -- -- -- -- --
Raw hourly METARs
KMSP 190853Z 04008KT 10SM OVC030 20/18 A2997 RMK AO2 LTG DSNT SE SLP146 T02000183 56006
KMSP 190958Z 06010G21KT 5SM -RA BR SCT008 BKN014 OVC038 19/18 A2998 RMK AO2 VIS E 2 1/2 P0000 T01940183
KMSP 191053Z 10011KT 10SM -DZ FEW015 BKN021 OVC026 17/16 A3000 RMK AO2 WSHFT 0959 RAE20DZB23 SLP157 P0000 T01720161
KMSP 191153Z 08012KT 10SM -DZ OVC014 17/17 A3001 RMK AO2 DZE05B37RAB14E33 SLP159 P0000 60001 70007 T01720167 10211 20172 51012
KMSP 191300Z 08012KT 3SM -RA BR BKN007 OVC011 17/17 A3001 RMK AO2 SFC VIS 5 P0000 T01720172
KMSP 191353Z 09015KT 7SM -RA BKN008 OVC027 17/16 A3001 RMK AO2 SLP158 P0001 T01720161
KMSP 191453Z 11014KT 6SM -RA BR BKN009 OVC031 17/16 A3002 RMK AO2 SLP161 P0012 60014 T01670156 53002
KMSP 191553Z 10012KT 9SM -RA OVC009 17/16 A3003 RMK AO2 RAE22B39 SLP166 P0002 T01670161
KMSP 191703Z 08011KT 2SM R30L/6000VP6000FT +RA BR BKN008 OVC013 17/17 A3001 RMK AO2 VIS N 3 P0006 T01670167
KMSP 191753Z 09012KT 8SM -RA OVC010 17/17 A3000 RMK AO2 SLP158 P0016 60049 T01720167 10178 20167 58004
KMSP 191853Z 09013KT 10SM OVC012 18/17 A2998 RMK AO2 RAE1756 SLP150 P0000 T01830167
KMSP 191953Z 09011KT 10SM OVC012 19/17 A2997 RMK AO2 SLP147 T01890167
KMSP 192053Z 08012KT 10SM OVC013 19/17 A2997 RMK AO2 SLP147 60000 T01890167 56010



Page loaded:  21:59 UTC  |   02:59 PM Pacific  |   03:59 PM Mountain  |   04:59 PM Central  |   05:59 PM Eastern

 

ADVISORIES

FORECASTS

FORECASTS

OBSERVATIONS

USER TOOLS

ABOUT US